Time;durP1;ratioP1;P1;durP2;ratioP2;P2;SDS_P1;SDS_P2;PMS_P1;PMS_P2;Temp;Humidity;BMP_temperature;BMP_pressure;BME280_temperature;BME280_humidity;BME280_pressure;Samples;Min_cycle;Max_cycle;Signal;HPM_P1;HPM_P2
2022/08/13 00:00:25;;;;;;;4.22;3.17;;;20.40;49.50;;;;;;5034824;28;20022;-70
2022/08/13 00:02:51;;;;;;;3.40;3.03;;;20.50;49.60;;;;;;5034850;28;20471;-70
2022/08/13 00:05:19;;;;;;;7.53;3.42;;;20.50;50.40;;;;;;5034702;28;20025;-71
2022/08/13 00:07:45;;;;;;;4.05;2.83;;;20.50;50.00;;;;;;5034674;28;20052;-72
2022/08/13 00:10:11;;;;;;;3.70;2.28;;;20.50;50.30;;;;;;5034619;28;20045;-70
2022/08/13 00:12:56;;;;;;;3.47;2.28;;;20.50;49.50;;;;;;5033494;28;20471;-70
2022/08/13 00:15:29;;;;;;;2.85;2.10;;;20.50;49.60;;;;;;5034520;28;20030;-71
2022/08/13 00:18:02;;;;;;;2.95;2.22;;;20.50;49.50;;;;;;5034492;28;20052;-70
2022/08/13 00:20:32;;;;;;;6.60;2.25;;;20.50;49.60;;;;;;5034179;28;20041;-71
2022/08/13 00:22:58;;;;;;;3.53;2.35;;;20.40;49.80;;;;;;5034427;28;20055;-71
2022/08/13 00:25:25;;;;;;;6.93;2.38;;;20.40;49.70;;;;;;5034099;28;20021;-71
2022/08/13 00:27:56;;;;;;;3.58;2.83;;;20.40;49.80;;;;;;5014565;28;20026;-71
2022/08/13 00:30:29;;;;;;;3.92;3.50;;;20.30;50.00;;;;;;5014621;28;20021;-71
2022/08/13 00:32:55;;;;;;;5.35;3.33;;;20.30;51.00;;;;;;5031759;28;20014;-71
2022/08/13 00:35:20;;;;;;;4.35;3.72;;;20.30;51.40;;;;;;5034578;28;20036;-72
2022/08/13 00:37:48;;;;;;;5.00;3.80;;;20.20;51.60;;;;;;5034132;28;20029;-72
2022/08/13 00:40:17;;;;;;;5.85;4.10;;;20.30;51.80;;;;;;5034183;28;20152;-70
2022/08/13 00:42:43;;;;;;;5.28;3.90;;;20.20;51.80;;;;;;5033853;28;20025;-70
2022/08/13 00:45:10;;;;;;;5.03;3.50;;;20.20;51.80;;;;;;5033959;28;20025;-72
2022/08/13 00:50:20;;;;;;;4.75;3.88;;;20.10;51.70;;;;;;5033938;28;20032;-71
2022/08/13 00:52:49;;;;;;;4.22;3.58;;;20.10;51.90;;;;;;5033756;28;20102;-71
2022/08/13 00:55:18;;;;;;;4.85;3.70;;;20.10;51.40;;;;;;5033768;28;20083;-70
2022/08/13 00:57:47;;;;;;;4.30;3.08;;;20.10;51.30;;;;;;5052224;28;20116;-71
2022/08/13 01:00:16;;;;;;;4.63;3.20;;;20.00;51.20;;;;;;5053574;28;20108;-71
2022/08/13 01:02:45;;;;;;;4.60;3.50;;;20.10;51.50;;;;;;5053361;28;20021;-71
2022/08/13 01:05:11;;;;;;;3.80;3.40;;;20.00;51.50;;;;;;5053282;28;20028;-71
2022/08/13 01:07:43;;;;;;;5.95;3.40;;;20.00;51.50;;;;;;5053326;28;20385;-71
2022/08/13 01:10:10;;;;;;;4.82;3.30;;;19.90;51.20;;;;;;5053290;28;20021;-71
2022/08/13 01:12:38;;;;;;;5.32;3.35;;;19.90;51.50;;;;;;5035367;28;20029;-70
2022/08/13 01:15:06;;;;;;;4.75;3.50;;;19.90;51.60;;;;;;5035374;28;20436;-69
2022/08/13 01:17:35;;;;;;;4.90;3.70;;;19.80;51.90;;;;;;5053187;28;20090;-72
2022/08/13 01:20:02;;;;;;;4.28;3.53;;;19.80;52.00;;;;;;5052923;28;20052;-70
2022/08/13 01:22:29;;;;;;;5.18;3.25;;;19.70;52.00;;;;;;5035199;28;20036;-71
2022/08/13 01:24:55;;;;;;;5.03;3.47;;;19.70;51.90;;;;;;5052488;28;20048;-71
2022/08/13 01:27:25;;;;;;;6.18;3.63;;;19.70;52.10;;;;;;5037115;28;20028;-69
2022/08/13 01:29:51;;;;;;;4.80;3.40;;;19.60;51.90;;;;;;5016529;28;20520;-73
2022/08/13 01:32:20;;;;;;;4.85;2.88;;;19.60;51.90;;;;;;5032983;28;20025;-71
2022/08/13 01:34:48;;;;;;;5.05;3.25;;;19.50;51.80;;;;;;5032922;28;20033;-72
2022/08/13 01:37:15;;;;;;;5.70;3.72;;;19.50;52.40;;;;;;5032896;28;20479;-71
2022/08/13 01:39:41;;;;;;;6.47;3.05;;;19.40;52.70;;;;;;5032849;28;20029;-70
2022/08/13 01:42:20;;;;;;;10.95;3.53;;;19.40;52.60;;;;;;5032788;28;20025;-71
2022/08/13 01:44:49;;;;;;;5.53;3.22;;;19.40;52.70;;;;;;5032739;28;20029;-71
2022/08/13 01:52:46;;;;;;;4.47;3.03;;;19.30;52.90;;;;;;5032657;28;20438;-72
2022/08/13 01:55:12;;;;;;;3.58;2.75;;;19.30;53.20;;;;;;5032525;28;20033;-71
2022/08/13 01:57:40;;;;;;;5.30;3.20;;;19.30;53.10;;;;;;5033295;28;20017;-70
2022/08/13 02:00:13;;;;;;;4.03;3.03;;;19.30;53.20;;;;;;5032532;28;20018;-70
2022/08/13 02:02:43;;;;;;;3.58;2.63;;;19.30;53.30;;;;;;5032580;28;20487;-70
2022/08/13 02:05:10;;;;;;;6.18;3.05;;;19.20;52.90;;;;;;5032407;28;20022;-70
2022/08/13 02:07:43;;;;;;;3.60;2.72;;;19.30;53.10;;;;;;5032491;28;20040;-72
2022/08/13 02:10:09;;;;;;;4.00;2.70;;;19.20;53.20;;;;;;5032509;28;20021;-71
2022/08/13 02:12:36;;;;;;;3.30;2.42;;;19.30;53.20;;;;;;5032475;28;20037;-71
2022/08/13 02:15:05;;;;;;;3.35;2.20;;;19.20;53.00;;;;;;5032352;28;20025;-71
2022/08/13 02:17:38;;;;;;;6.85;2.78;;;19.20;53.20;;;;;;5032389;28;20028;-70
2022/08/13 02:20:06;;;;;;;7.10;3.30;;;19.20;53.30;;;;;;5032225;28;20072;-71
2022/08/13 02:22:31;;;;;;;3.83;2.58;;;19.30;53.50;;;;;;5014628;28;20082;-72
2022/08/13 02:24:59;;;;;;;5.68;3.13;;;19.30;53.50;;;;;;5032245;28;20022;-72
2022/08/13 02:27:26;;;;;;;4.03;2.88;;;19.30;53.40;;;;;;5047473;28;20564;-72
2022/08/13 02:29:53;;;;;;;4.30;2.95;;;19.30;53.50;;;;;;5035856;28;20091;-71
2022/08/13 02:32:22;;;;;;;6.30;3.13;;;19.40;53.50;;;;;;5030949;28;20033;-71
2022/08/13 02:34:50;;;;;;;4.80;3.13;;;19.40;53.60;;;;;;5030967;28;20040;-72
2022/08/13 02:37:21;;;;;;;3.95;3.13;;;19.40;53.50;;;;;;5033511;28;20032;-72
2022/08/13 02:39:53;;;;;;;4.13;2.70;;;19.40;53.60;;;;;;5036227;28;20021;-72
2022/08/13 02:42:22;;;;;;;4.05;3.10;;;19.50;53.50;;;;;;5036118;28;20037;-72
2022/08/13 02:44:49;;;;;;;3.47;2.90;;;19.50;53.50;;;;;;5035985;28;20021;-71
2022/08/13 02:47:21;;;;;;;6.65;3.33;;;19.50;53.60;;;;;;5035980;28;20440;-71
2022/08/13 02:49:51;;;;;;;5.53;3.40;;;19.50;53.60;;;;;;5035983;28;20013;-71
2022/08/13 02:52:19;;;;;;;4.75;3.13;;;19.50;53.60;;;;;;5034785;28;20018;-71
2022/08/13 02:54:47;;;;;;;5.35;3.40;;;19.50;53.80;;;;;;5035954;28;20022;-71
2022/08/13 02:57:14;;;;;;;5.75;3.80;;;19.60;54.00;;;;;;5034255;28;20037;-70
2022/08/13 02:59:41;;;;;;;3.60;2.78;;;19.60;54.10;;;;;;5034658;28;20152;-71
2022/08/13 03:02:08;;;;;;;5.35;3.92;;;19.60;54.10;;;;;;5034560;28;20432;-70
2022/08/13 03:04:34;;;;;;;5.47;3.78;;;19.60;54.30;;;;;;5035690;28;20037;-70
2022/08/13 03:07:01;;;;;;;4.57;3.58;;;19.50;54.50;;;;;;5035681;28;20517;-72
2022/08/13 03:09:28;;;;;;;4.63;3.45;;;19.60;54.50;;;;;;5034437;28;20035;-71
2022/08/13 03:12:03;;;;;;;6.45;3.85;;;19.60;54.80;;;;;;5035592;28;20022;-70
2022/08/13 03:14:34;;;;;;;6.97;3.28;;;19.60;54.70;;;;;;5035572;28;20021;-71
2022/08/13 03:16:59;;;;;;;4.95;3.50;;;19.60;54.50;;;;;;5017823;28;20506;-70
2022/08/13 03:19:25;;;;;;;5.32;3.80;;;19.60;54.40;;;;;;5035335;28;20033;-70
2022/08/13 03:21:51;;;;;;;4.53;3.70;;;19.60;54.30;;;;;;5034184;28;20391;-70
2022/08/13 03:24:18;;;;;;;4.55;3.25;;;19.60;54.20;;;;;;5035341;28;20060;-71
2022/08/13 03:26:44;;;;;;;3.47;3.00;;;19.60;54.30;;;;;;5045919;28;20029;-70
2022/08/13 03:29:11;;;;;;;4.85;3.58;;;19.60;54.40;;;;;;5035271;28;20382;-71
2022/08/13 03:31:37;;;;;;;4.38;2.90;;;19.60;54.30;;;;;;5035251;28;20360;-72
2022/08/13 03:34:04;;;;;;;6.63;3.40;;;19.70;54.20;;;;;;5035477;28;20076;-70
2022/08/13 03:36:32;;;;;;;5.43;3.47;;;19.60;54.30;;;;;;5035166;28;20024;-70
2022/08/13 03:38:59;;;;;;;4.78;3.40;;;19.60;54.40;;;;;;5035067;28;20088;-72
2022/08/13 03:41:26;;;;;;;4.75;3.53;;;19.70;54.60;;;;;;5035013;28;20021;-69
2022/08/13 03:43:54;;;;;;;6.32;3.53;;;19.60;54.50;;;;;;5034952;28;20383;-71
2022/08/13 03:46:22;;;;;;;5.13;3.42;;;19.60;54.50;;;;;;5034934;28;20029;-72
2022/08/13 03:48:49;;;;;;;5.28;3.90;;;19.60;54.60;;;;;;5034598;28;20499;-71
2022/08/13 03:51:16;;;;;;;5.00;3.28;;;19.50;54.70;;;;;;5034859;28;20397;-72
2022/08/13 03:53:44;;;;;;;6.70;3.45;;;19.50;54.50;;;;;;5033528;28;20475;-72
2022/08/13 03:56:12;;;;;;;5.63;3.78;;;19.40;54.50;;;;;;5041026;28;20033;-70
2022/08/13 03:58:38;;;;;;;4.80;3.45;;;19.40;54.90;;;;;;5043564;28;20030;-71
2022/08/13 04:01:05;;;;;;;8.60;3.67;;;19.30;55.10;;;;;;5034702;28;20390;-72
2022/08/13 04:03:37;;;;;;;4.60;3.45;;;19.30;55.40;;;;;;5034719;28;20025;-71
2022/08/13 04:06:19;;;;;;;3.58;2.95;;;19.30;55.40;;;;;;5033427;28;20030;-71
2022/08/13 04:08:46;;;;;;;4.78;3.03;;;19.20;55.30;;;;;;5034748;28;20444;-70
2022/08/13 04:11:15;;;;;;;7.35;3.53;;;19.20;55.30;;;;;;5034715;28;20049;-73
2022/08/13 04:13:42;;;;;;;5.88;3.50;;;19.20;55.30;;;;;;5034623;28;20079;-72
2022/08/13 04:16:15;;;;;;;3.40;2.90;;;19.20;55.40;;;;;;5034660;28;20068;-71
2022/08/13 04:18:43;;;;;;;4.05;3.20;;;19.10;55.40;;;;;;5034600;28;20025;-71
2022/08/13 04:21:10;;;;;;;4.20;3.22;;;19.10;55.40;;;;;;5034274;28;20492;-71
2022/08/13 04:23:39;;;;;;;5.68;2.85;;;19.10;55.50;;;;;;5034413;28;20112;-72
2022/08/13 04:26:06;;;;;;;5.13;3.42;;;19.10;55.50;;;;;;5021626;28;20043;-73
2022/08/13 04:28:32;;;;;;;7.60;3.72;;;19.00;55.50;;;;;;5054195;28;20083;-73
2022/08/13 04:30:58;;;;;;;5.78;3.65;;;19.00;55.70;;;;;;5036324;28;20044;-72
2022/08/13 04:33:25;;;;;;;4.43;2.90;;;19.00;56.00;;;;;;5054210;28;20382;-71
2022/08/13 04:35:51;;;;;;;4.57;3.15;;;19.00;55.80;;;;;;5036286;28;20036;-72
2022/08/13 04:38:17;;;;;;;3.70;3.10;;;19.00;55.80;;;;;;5054056;28;20410;-72
2022/08/13 04:40:45;;;;;;;5.57;3.13;;;19.00;55.90;;;;;;5054033;28;20029;-70
2022/08/13 04:43:12;;;;;;;5.22;3.55;;;19.00;56.10;;;;;;5053965;28;20021;-72
2022/08/13 04:45:39;;;;;;;4.25;3.08;;;18.90;56.10;;;;;;5053865;28;20025;-72
2022/08/13 04:48:12;;;;;;;5.65;3.45;;;19.00;56.10;;;;;;5053897;28;20359;-72
2022/08/13 04:50:39;;;;;;;4.82;3.38;;;18.90;56.10;;;;;;5053945;28;20075;-71
2022/08/13 04:53:21;;;;;;;4.22;3.17;;;18.90;56.00;;;;;;5053945;28;20044;-72
2022/08/13 04:55:47;;;;;;;3.35;2.80;;;18.90;56.00;;;;;;5050291;28;20513;-71
2022/08/13 04:58:12;;;;;;;5.80;3.53;;;19.00;56.10;;;;;;5033740;28;20029;-72
2022/08/13 05:00:38;;;;;;;11.88;3.45;;;19.00;56.10;;;;;;5032752;28;20017;-70
2022/08/13 05:03:08;;;;;;;4.65;2.88;;;19.00;56.30;;;;;;5034114;28;20104;-71
2022/08/13 05:05:35;;;;;;;4.57;3.00;;;19.00;56.30;;;;;;5015554;28;20057;-72
2022/08/13 05:08:01;;;;;;;4.43;3.38;;;19.00;56.20;;;;;;5033557;28;20022;-72
2022/08/13 05:10:28;;;;;;;7.13;2.80;;;19.00;56.30;;;;;;5033480;28;20020;-72
2022/08/13 05:12:54;;;;;;;4.85;3.33;;;19.00;56.30;;;;;;5033493;28;20024;-72
2022/08/13 05:15:20;;;;;;;5.20;3.67;;;19.10;56.40;;;;;;5033427;28;20013;-73
2022/08/13 05:17:46;;;;;;;5.63;3.13;;;19.10;56.70;;;;;;5032112;28;20104;-72
2022/08/13 05:20:13;;;;;;;5.53;3.03;;;19.10;56.70;;;;;;5033164;28;20567;-73
2022/08/13 05:22:39;;;;;;;4.57;3.22;;;19.20;56.70;;;;;;5034065;28;20112;-71
2022/08/13 05:25:05;;;;;;;6.53;3.45;;;19.30;56.90;;;;;;5033005;28;20030;-72
2022/08/13 05:27:31;;;;;;;8.57;4.43;;;19.30;56.80;;;;;;5033067;28;20029;-71
2022/08/13 05:29:58;;;;;;;6.28;3.70;;;19.40;57.10;;;;;;5033022;28;20025;-73
2022/08/13 05:32:25;;;;;;;12.23;3.75;;;19.50;57.20;;;;;;5031495;28;20030;-73
2022/08/13 05:34:51;;;;;;;13.82;3.50;;;19.60;57.00;;;;;;5033071;28;20048;-71
2022/08/13 05:37:17;;;;;;;13.35;4.05;;;19.60;56.70;;;;;;5033037;28;20056;-71
2022/08/13 05:39:45;;;;;;;14.18;4.35;;;19.70;56.70;;;;;;5032985;28;20037;-72
2022/08/13 05:42:11;;;;;;;7.57;3.95;;;19.70;56.80;;;;;;5032988;28;20025;-69
2022/08/13 05:44:37;;;;;;;7.90;3.58;;;19.80;56.90;;;;;;5032783;28;20540;-73
2022/08/13 05:47:04;;;;;;;6.20;3.03;;;19.80;56.90;;;;;;5032910;28;20698;-71
2022/08/13 05:49:29;;;;;;;12.93;4.07;;;19.90;56.90;;;;;;5032837;28;20020;-73
2022/08/13 05:51:57;;;;;;;5.55;3.17;;;20.00;56.90;;;;;;5034775;28;20037;-68
2022/08/13 05:54:23;;;;;;;8.13;3.83;;;20.00;56.70;;;;;;5052648;28;20104;-70
2022/08/13 05:56:49;;;;;;;7.70;3.40;;;20.10;56.40;;;;;;5034632;28;20381;-69
2022/08/13 06:04:44;;;;;;;5.50;3.20;;;20.50;56.10;;;;;;5052455;28;20087;-71
2022/08/13 06:07:18;;;;;;;5.22;3.50;;;20.50;55.90;;;;;;5034688;28;20025;-71
2022/08/13 06:09:44;;;;;;;5.10;2.70;;;20.60;55.70;;;;;;5052426;28;20016;-70
2022/08/13 06:12:11;;;;;;;4.78;2.90;;;20.80;55.40;;;;;;5052438;28;20032;-71
2022/08/13 06:14:37;;;;;;;4.93;3.20;;;20.90;55.10;;;;;;5052442;28;20045;-72
2022/08/13 06:17:03;;;;;;;5.63;3.28;;;21.00;54.90;;;;;;5052415;28;20094;-70
2022/08/13 06:19:32;;;;;;;6.45;4.05;;;21.10;54.70;;;;;;5034345;28;20017;-70
2022/08/13 06:22:02;;;;;;;6.10;3.72;;;21.20;54.60;;;;;;5049642;28;20268;-72
2022/08/13 06:24:33;;;;;;;6.85;4.25;;;21.40;54.50;;;;;;5011222;28;20495;-72
2022/08/13 06:27:01;;;;;;;8.68;3.90;;;21.60;54.10;;;;;;5014713;28;20034;-70
2022/08/13 06:29:29;;;;;;;6.53;4.50;;;21.70;53.70;;;;;;5014744;28;20018;-71
2022/08/13 06:31:58;;;;;;;7.35;4.55;;;21.80;53.30;;;;;;5032343;28;20020;-70
2022/08/13 06:34:24;;;;;;;5.70;4.03;;;22.00;53.10;;;;;;5032649;28;20053;-71
2022/08/13 06:36:50;;;;;;;6.18;4.22;;;22.10;52.90;;;;;;5032324;28;20498;-71
2022/08/13 06:39:17;;;;;;;12.93;4.30;;;22.10;52.40;;;;;;5032306;28;20061;-70
2022/08/13 06:41:45;;;;;;;7.88;4.15;;;22.20;52.20;;;;;;5032221;28;20450;-70
2022/08/13 06:44:11;;;;;;;8.07;4.40;;;22.30;52.00;;;;;;5032194;28;20083;-71
2022/08/13 06:46:39;;;;;;;9.73;5.97;;;22.40;51.80;;;;;;5014538;28;20022;-71
2022/08/13 06:49:05;;;;;;;13.02;6.25;;;22.40;51.40;;;;;;5032189;28;20017;-70
2022/08/13 06:51:31;;;;;;;7.65;5.90;;;22.50;51.30;;;;;;5030909;28;20025;-71
2022/08/13 06:53:57;;;;;;;13.60;7.40;;;22.50;51.30;;;;;;5050228;28;20032;-70
2022/08/13 06:56:26;;;;;;;13.45;6.25;;;22.50;51.00;;;;;;5052022;28;20496;-70
2022/08/13 06:58:54;;;;;;;13.93;6.60;;;22.50;51.00;;;;;;5034147;28;20489;-70
2022/08/13 07:01:23;;;;;;;12.40;6.80;;;22.50;51.10;;;;;;5052017;28;20426;-70
2022/08/13 07:03:49;;;;;;;14.27;7.47;;;22.50;51.10;;;;;;5052293;28;20017;-72
2022/08/13 07:06:16;;;;;;;11.32;6.00;;;22.50;50.90;;;;;;5034090;28;20025;-72
2022/08/13 07:08:43;;;;;;;16.55;6.68;;;22.60;51.10;;;;;;5051956;28;20478;-71
2022/08/13 07:11:24;;;;;;;17.65;5.97;;;22.60;51.00;;;;;;5051884;28;20025;-72
2022/08/13 07:13:56;;;;;;;13.73;6.43;;;22.60;51.10;;;;;;5033988;28;20021;-70
2022/08/13 07:16:24;;;;;;;14.43;6.82;;;22.60;50.90;;;;;;5051809;28;20017;-70
2022/08/13 07:18:50;;;;;;;13.93;6.97;;;22.70;50.80;;;;;;5051744;28;20032;-72
2022/08/13 07:21:20;;;;;;;17.20;6.85;;;22.70;50.70;;;;;;5049314;28;20037;-71
2022/08/13 07:23:47;;;;;;;14.43;7.70;;;22.80;50.60;;;;;;5050934;28;20100;-72
2022/08/13 07:26:16;;;;;;;15.07;6.95;;;22.90;50.20;;;;;;5037274;28;20029;-72
2022/08/13 07:28:44;;;;;;;10.85;6.50;;;22.90;50.40;;;;;;5055175;28;20108;-72
2022/08/13 07:31:11;;;;;;;10.15;6.07;;;23.10;50.40;;;;;;5037424;28;20445;-72
2022/08/13 07:33:39;;;;;;;23.80;7.07;;;23.20;50.10;;;;;;5055093;28;20031;-71
2022/08/13 07:36:08;;;;;;;15.23;6.43;;;23.20;49.70;;;;;;5055190;28;20120;-70
2022/08/13 07:38:34;;;;;;;11.48;6.22;;;23.30;50.30;;;;;;5055162;28;20029;-71
2022/08/13 07:41:02;;;;;;;13.95;5.93;;;23.40;49.70;;;;;;5055086;28;20052;-70
2022/08/13 07:43:32;;;;;;;13.40;6.15;;;23.50;49.50;;;;;;5055017;28;20108;-71
2022/08/13 07:46:07;;;;;;;13.05;6.38;;;23.60;49.10;;;;;;5054898;28;20047;-71
2022/08/13 07:48:35;;;;;;;14.25;6.13;;;23.60;48.60;;;;;;5037088;28;20044;-71
2022/08/13 07:51:02;;;;;;;9.32;5.45;;;23.80;48.90;;;;;;5036943;28;20031;-70
2022/08/13 07:53:28;;;;;;;11.38;5.97;;;23.90;48.80;;;;;;5040659;28;20032;-72
2022/08/13 07:55:55;;;;;;;17.20;6.30;;;24.10;48.20;;;;;;5034758;28;20060;-72
2022/08/13 07:58:28;;;;;;;15.48;6.30;;;24.20;47.80;;;;;;5034846;28;20040;-71
2022/08/13 08:00:57;;;;;;;10.98;5.30;;;24.40;48.00;;;;;;5017095;28;20076;-72
2022/08/13 08:03:27;;;;;;;11.10;5.60;;;24.50;47.30;;;;;;5034724;28;20490;-70
2022/08/13 08:05:53;;;;;;;11.45;4.90;;;24.70;46.90;;;;;;5034853;28;20022;-71
2022/08/13 08:08:19;;;;;;;8.55;4.68;;;24.80;46.30;;;;;;5034640;28;20379;-70
2022/08/13 08:10:46;;;;;;;11.63;5.30;;;24.90;46.40;;;;;;5034571;28;20026;-70
2022/08/13 08:13:13;;;;;;;10.85;5.38;;;25.00;46.00;;;;;;5034526;28;20075;-70
2022/08/13 08:15:45;;;;;;;9.35;4.38;;;25.00;45.90;;;;;;5034478;28;20029;-70
2022/08/13 08:18:12;;;;;;;7.68;4.40;;;25.00;45.80;;;;;;5034460;28;20029;-71
2022/08/13 08:20:42;;;;;;;10.02;4.63;;;25.00;45.80;;;;;;5034039;28;20128;-71
2022/08/13 08:23:10;;;;;;;10.48;4.78;;;25.00;45.80;;;;;;5035191;28;20080;-71
2022/08/13 08:25:36;;;;;;;8.07;4.03;;;25.00;45.80;;;;;;5034038;28;20033;-72
2022/08/13 08:28:02;;;;;;;9.25;4.20;;;25.10;45.70;;;;;;5034263;28;20063;-71
2022/08/13 08:30:28;;;;;;;9.55;4.82;;;25.20;45.70;;;;;;5034600;28;20092;-72
2022/08/13 08:32:56;;;;;;;11.70;4.72;;;25.20;45.40;;;;;;5034072;28;20024;-71
2022/08/13 08:35:23;;;;;;;7.53;4.53;;;25.30;45.40;;;;;;5032003;28;20386;-72
2022/08/13 08:43:34;;;;;;;6.03;3.83;;;25.50;44.90;;;;;;5034267;28;20071;-72
2022/08/13 08:46:04;;;;;;;14.85;5.35;;;25.60;45.00;;;;;;5033811;28;20033;-70
2022/08/13 08:48:34;;;;;;;11.65;4.93;;;25.70;44.90;;;;;;5034154;28;20022;-71
2022/08/13 08:51:01;;;;;;;10.45;4.70;;;25.80;44.30;;;;;;5033862;28;20070;-72
2022/08/13 08:53:28;;;;;;;6.97;4.07;;;25.80;44.40;;;;;;5046563;28;20466;-70
2022/08/13 08:55:55;;;;;;;15.10;4.57;;;25.90;44.20;;;;;;5053560;28;20021;-72
2022/08/13 08:58:22;;;;;;;7.03;3.88;;;26.00;44.30;;;;;;5053620;28;20021;-71
2022/08/13 09:00:53;;;;;;;8.02;3.97;;;26.10;44.20;;;;;;5035887;28;20386;-72
2022/08/13 09:03:19;;;;;;;9.00;4.07;;;26.10;44.20;;;;;;5053404;28;20048;-71
2022/08/13 09:05:49;;;;;;;9.73;4.70;;;26.30;44.30;;;;;;5053277;28;20123;-70
2022/08/13 09:08:18;;;;;;;6.18;3.97;;;26.40;43.50;;;;;;5035514;28;20028;-71
2022/08/13 09:10:52;;;;;;;9.23;5.22;;;26.60;43.10;;;;;;5053309;28;20021;-70
2022/08/13 09:13:21;;;;;;;8.68;4.65;;;26.70;43.20;;;;;;5053301;28;20017;-70
2022/08/13 09:15:48;;;;;;;8.15;3.75;;;26.90;43.00;;;;;;5053297;28;20032;-72
2022/08/13 09:18:18;;;;;;;11.50;4.43;;;27.00;42.70;;;;;;5052927;28;20029;-73
2022/08/13 09:20:45;;;;;;;7.97;5.28;;;27.20;42.00;;;;;;5033000;28;20399;-71
2022/08/13 09:23:13;;;;;;;10.50;4.38;;;27.40;42.30;;;;;;5043639;28;20043;-70
2022/08/13 09:25:43;;;;;;;7.22;3.83;;;27.60;41.50;;;;;;5035185;28;20029;-73
2022/08/13 09:28:10;;;;;;;8.02;5.57;;;27.80;41.50;;;;;;5035280;28;20124;-71
2022/08/13 09:30:36;;;;;;;9.05;4.60;;;28.00;40.30;;;;;;5052997;28;20009;-70
2022/08/13 09:33:03;;;;;;;10.20;5.30;;;28.20;40.90;;;;;;5035046;28;20024;-68
2022/08/13 09:35:31;;;;;;;14.35;5.43;;;28.40;39.90;;;;;;5052898;28;20021;-73
2022/08/13 09:37:58;;;;;;;8.90;5.60;;;28.50;39.50;;;;;;5052912;28;20056;-71
2022/08/13 09:40:30;;;;;;;13.02;4.97;;;28.50;38.60;;;;;;5052831;28;20017;-73
2022/08/13 09:43:02;;;;;;;12.48;4.90;;;28.50;38.90;;;;;;5052790;28;20551;-72
2022/08/13 09:45:29;;;;;;;11.38;5.03;;;28.50;38.40;;;;;;5052432;28;20028;-71
2022/08/13 09:47:56;;;;;;;7.78;4.90;;;28.50;38.40;;;;;;5052690;28;20025;-71
2022/08/13 09:50:25;;;;;;;26.48;6.32;;;28.40;38.30;;;;;;5034704;28;20330;-68
2022/08/13 09:52:56;;;;;;;10.95;5.22;;;28.30;38.00;;;;;;5044611;28;20021;-71
2022/08/13 09:55:25;;;;;;;7.22;4.47;;;28.20;38.10;;;;;;5032697;28;20056;-72
2022/08/13 09:58:05;;;;;;;7.93;4.00;;;28.10;38.40;;;;;;5032615;28;20029;-71
2022/08/13 10:00:33;;;;;;;11.75;4.78;;;28.00;39.00;;;;;;5032633;28;20037;-72
2022/08/13 10:03:03;;;;;;;8.05;4.70;;;28.00;39.00;;;;;;5031208;28;20037;-70
2022/08/13 10:05:34;;;;;;;7.40;4.45;;;27.90;39.00;;;;;;5032553;28;20037;-71
2022/08/13 10:08:02;;;;;;;6.53;4.30;;;27.80;39.10;;;;;;5032573;28;20434;-70
2022/08/13 10:10:28;;;;;;;5.78;3.45;;;27.80;39.30;;;;;;5032436;28;20029;-71
2022/08/13 10:12:55;;;;;;;6.10;3.88;;;27.70;39.30;;;;;;5032481;28;20053;-69
2022/08/13 10:15:21;;;;;;;8.05;4.03;;;27.70;39.50;;;;;;5032507;28;20091;-72
2022/08/13 10:17:49;;;;;;;7.65;4.00;;;27.80;39.60;;;;;;5032318;28;20025;-71
2022/08/13 10:20:36;;;;;;;8.60;4.22;;;27.80;39.50;;;;;;5032217;28;20148;-71
2022/08/13 10:23:08;;;;;;;8.10;4.32;;;27.80;39.60;;;;;;5040899;28;20241;-70
2022/08/13 10:25:34;;;;;;;15.40;4.78;;;27.80;39.30;;;;;;5051898;28;20113;-70
2022/08/13 10:28:00;;;;;;;9.70;4.68;;;27.80;39.30;;;;;;5052345;28;20055;-71
2022/08/13 10:30:28;;;;;;;7.32;4.03;;;27.80;38.90;;;;;;5051025;28;20447;-71
2022/08/13 10:32:55;;;;;;;4.32;3.75;;;27.90;39.20;;;;;;5052190;28;20108;-73
2022/08/13 10:35:27;;;;;;;5.68;4.15;;;27.80;39.20;;;;;;5052216;28;20009;-72
2022/08/13 10:37:57;;;;;;;12.65;5.22;;;27.90;39.10;;;;;;5033340;28;20021;-72
2022/08/13 10:40:24;;;;;;;7.65;3.97;;;27.90;38.90;;;;;;5031016;28;20104;-72
2022/08/13 10:42:51;;;;;;;6.97;4.28;;;27.90;38.90;;;;;;5030627;28;20487;-70
2022/08/13 10:45:20;;;;;;;4.85;4.07;;;27.90;39.10;;;;;;5030476;28;20040;-70
2022/08/13 10:47:48;;;;;;;6.97;4.60;;;27.90;39.00;;;;;;5012943;28;20427;-70
2022/08/13 10:50:16;;;;;;;8.77;4.00;;;27.90;39.10;;;;;;5030741;28;20022;-70
2022/08/13 10:52:42;;;;;;;5.95;4.20;;;27.90;39.00;;;;;;5030776;28;20391;-72
2022/08/13 10:55:12;;;;;;;4.97;3.65;;;28.00;38.90;;;;;;5030842;28;20022;-71
2022/08/13 10:57:43;;;;;;;13.20;4.93;;;28.00;38.90;;;;;;5030689;28;20030;-71
2022/08/13 11:00:14;;;;;;;4.28;3.45;;;28.00;39.00;;;;;;5034458;28;20037;-72
2022/08/13 11:02:40;;;;;;;6.13;4.47;;;28.10;39.10;;;;;;5016526;28;20075;-72
2022/08/13 11:05:11;;;;;;;6.40;4.07;;;28.10;39.10;;;;;;5034185;28;20032;-71
2022/08/13 11:07:38;;;;;;;6.82;4.18;;;28.10;39.10;;;;;;5016474;28;20026;-72
2022/08/13 11:10:09;;;;;;;5.95;4.03;;;28.20;38.80;;;;;;5034385;28;20092;-71
2022/08/13 11:12:42;;;;;;;4.20;3.80;;;28.20;39.10;;;;;;5034318;28;20105;-71
2022/08/13 11:15:09;;;;;;;5.80;3.67;;;28.30;39.20;;;;;;5034683;28;20108;-70
2022/08/13 11:17:35;;;;;;;4.45;3.75;;;28.40;39.00;;;;;;5033910;28;20026;-71
2022/08/13 11:20:04;;;;;;;4.72;3.75;;;28.40;38.70;;;;;;5033168;28;20522;-71
2022/08/13 11:22:30;;;;;;;5.90;4.18;;;28.40;38.90;;;;;;5035970;28;20025;-71
2022/08/13 11:24:59;;;;;;;7.63;4.65;;;28.50;38.80;;;;;;5033926;28;20391;-70
2022/08/13 11:27:25;;;;;;;5.18;4.47;;;28.60;39.00;;;;;;5031361;28;20063;-71
2022/08/13 11:29:53;;;;;;;10.13;4.35;;;28.80;38.50;;;;;;5033933;28;20017;-70
2022/08/13 11:32:20;;;;;;;8.48;4.75;;;28.90;38.80;;;;;;5033881;28;20024;-70
2022/08/13 11:34:46;;;;;;;4.70;4.03;;;29.00;38.40;;;;;;5031221;28;20021;-71
2022/08/13 11:37:12;;;;;;;7.97;4.88;;;29.20;38.30;;;;;;5033714;28;20079;-70
2022/08/13 11:39:37;;;;;;;5.55;4.47;;;29.40;38.30;;;;;;5016464;28;20028;-72
2022/08/13 11:42:03;;;;;;;8.13;4.82;;;29.60;37.90;;;;;;5034317;28;20030;-71
2022/08/13 11:44:29;;;;;;;13.40;5.50;;;29.90;37.90;;;;;;5034414;28;20057;-72
2022/08/13 11:46:55;;;;;;;7.47;5.88;;;30.10;37.70;;;;;;5034446;28;20079;-71
2022/08/13 11:49:21;;;;;;;12.77;5.72;;;30.40;37.40;;;;;;5033222;28;20144;-73
2022/08/13 11:51:48;;;;;;;8.00;4.43;;;30.70;37.10;;;;;;5016489;28;20018;-73
2022/08/13 11:54:14;;;;;;;8.73;6.53;;;30.90;36.10;;;;;;5036507;28;20541;-72
2022/08/13 11:56:40;;;;;;;10.00;6.15;;;31.10;35.80;;;;;;5034237;28;20033;-70
2022/08/13 11:59:06;;;;;;;4.65;4.22;;;31.30;35.90;;;;;;5015978;28;20501;-71
2022/08/13 12:01:32;;;;;;;5.80;4.35;;;31.50;35.30;;;;;;5033324;28;20022;-71
2022/08/13 12:03:59;;;;;;;4.28;3.88;;;31.70;35.10;;;;;;5033156;28;20024;-70
2022/08/13 12:06:24;;;;;;;4.97;3.50;;;31.70;34.20;;;;;;5015188;28;20083;-71
2022/08/13 12:08:50;;;;;;;3.90;3.50;;;31.80;34.30;;;;;;5032100;28;20022;-71
2022/08/13 12:11:16;;;;;;;4.43;3.65;;;32.00;33.80;;;;;;5033974;28;20024;-71
2022/08/13 12:13:42;;;;;;;3.50;3.13;;;32.00;33.60;;;;;;5033944;28;20029;-70
2022/08/13 12:16:08;;;;;;;7.13;4.00;;;32.10;33.70;;;;;;5033654;28;20022;-71
2022/08/13 12:18:34;;;;;;;4.80;4.00;;;32.20;33.70;;;;;;5033921;28;20095;-73
2022/08/13 12:21:00;;;;;;;7.25;4.47;;;32.30;32.90;;;;;;5033737;28;20115;-70
2022/08/13 12:23:26;;;;;;;9.05;4.07;;;32.30;32.80;;;;;;5033584;28;20108;-72
2022/08/13 12:25:52;;;;;;;9.73;4.68;;;32.40;32.60;;;;;;5034196;28;20036;-70
2022/08/13 12:28:26;;;;;;;4.22;3.25;;;32.40;32.60;;;;;;5032542;28;20022;-72
2022/08/13 12:30:58;;;;;;;4.65;3.90;;;32.50;32.40;;;;;;5032584;28;20449;-72
2022/08/13 12:33:27;;;;;;;5.22;3.70;;;32.50;32.40;;;;;;5032635;28;20018;-71
2022/08/13 12:35:52;;;;;;;4.88;4.35;;;32.50;32.10;;;;;;5032309;28;20032;-71
2022/08/13 12:38:18;;;;;;;4.60;3.33;;;32.50;31.80;;;;;;5032654;28;20025;-72
2022/08/13 12:40:45;;;;;;;4.20;3.53;;;32.50;31.00;;;;;;5014453;28;20383;-71
2022/08/13 12:43:12;;;;;;;4.30;3.40;;;32.50;31.20;;;;;;5014512;28;20079;-72
2022/08/13 12:45:41;;;;;;;4.75;4.15;;;32.40;30.80;;;;;;5014141;28;20059;-71
2022/08/13 12:48:17;;;;;;;5.97;4.65;;;32.40;31.40;;;;;;5032195;28;20374;-71
2022/08/13 12:50:46;;;;;;;5.60;4.30;;;32.40;31.20;;;;;;5032411;28;20467;-72
2022/08/13 12:53:13;;;;;;;3.38;3.08;;;32.50;31.60;;;;;;5023144;28;20100;-73
2022/08/13 12:55:41;;;;;;;5.68;4.03;;;32.60;31.50;;;;;;5053591;28;20108;-72
2022/08/13 12:58:17;;;;;;;4.07;3.55;;;32.70;31.20;;;;;;5035671;28;20029;-71
2022/08/13 13:00:44;;;;;;;5.43;3.15;;;32.70;31.00;;;;;;5035667;28;20029;-72
2022/08/13 13:03:11;;;;;;;8.18;3.17;;;32.90;30.50;;;;;;5048239;28;20087;-73
2022/08/13 13:05:38;;;;;;;4.32;3.10;;;32.90;30.50;;;;;;5014225;28;20112;-73
2022/08/13 13:08:28;;;;;;;4.10;3.70;;;33.10;30.20;;;;;;5031995;28;20434;-72